Terminal Aerodrome Forecast
Issued by NWS

Home | Current Version | Previous Version | Graphics & Text | Print | Product List | Glossary On
Versions: 1 2 3 4 5 6 7 8 9 10 11 12 13 14 15 16 17 18 19 20 21 22 23 24 25 26 27
909
FTUS42 KMHX 291102 AAC
TAFOAJ
TAF AMD
KOAJ 291102Z 2911/3006 VRB04KT P6SM SCT005 BKN035
     FM291130 VRB04KT 5SM BR BKN005
     FM291400 35006KT P6SM SCT007 BKN015
     FM291600 36006KT P6SM SCT035
     FM300000 08005KT P6SM SCT040
      AMD LTD TO CLD VIS AND WIND=

USA.gov is the U.S. government's official web portal to all federal, state and local government web resources and services.